Time;durP1;ratioP1;P1;durP2;ratioP2;P2;SDS_P1;SDS_P2;PMS_P1;PMS_P2;Temp;Humidity;BMP_temperature;BMP_pressure;BME280_temperature;BME280_humidity;BME280_pressure;Samples;Min_cycle;Max_cycle;Signal;HPM_P1;HPM_P2
2023/08/15 00:09:13;;;;;;;16.05;13.23;;;15.20;99.90;;;;;;25340846;23;20337;-50
2023/08/15 00:19:15;;;;;;;20.65;14.60;;;15.30;99.90;;;;;;25341571;23;20013;-47
2023/08/15 00:29:17;;;;;;;15.88;12.68;;;15.30;99.90;;;;;;25341135;23;20397;-51
2023/08/15 00:39:19;;;;;;;13.05;11.70;;;15.30;99.90;;;;;;25315156;23;20601;-46
2023/08/15 00:49:21;;;;;;;14.35;10.95;;;15.30;99.90;;;;;;25340756;23;20002;-48
2023/08/15 00:59:23;;;;;;;15.55;12.23;;;15.40;99.90;;;;;;25340060;23;20053;-51
2023/08/15 01:09:25;;;;;;;16.33;14.48;;;15.20;99.90;;;;;;25314066;23;20073;-47
2023/08/15 01:19:41;;;;;;;17.23;14.80;;;15.10;99.90;;;;;;25339801;23;20430;-49
2023/08/15 01:29:45;;;;;;;17.60;15.25;;;15.00;99.90;;;;;;25379820;23;20076;-49
2023/08/15 01:39:50;;;;;;;17.45;15.10;;;14.90;99.90;;;;;;25314226;23;20148;-49
2023/08/15 01:49:52;;;;;;;20.67;15.65;;;15.00;99.90;;;;;;25346896;23;20013;-48
2023/08/15 01:59:56;;;;;;;25.02;19.35;;;14.90;99.90;;;;;;25347811;23;20060;-51
2023/08/15 02:09:58;;;;;;;23.40;16.00;;;14.80;99.90;;;;;;25320387;23;20002;-48
2023/08/15 02:20:00;;;;;;;23.58;17.13;;;14.80;99.90;;;;;;25320123;23;20009;-48
2023/08/15 02:30:03;;;;;;;22.85;18.95;;;14.90;99.90;;;;;;25344779;23;20377;-45
2023/08/15 02:40:08;;;;;;;17.63;15.25;;;14.80;99.90;;;;;;25344308;23;20017;-49
2023/08/15 02:50:10;;;;;;;24.75;17.38;;;14.80;99.90;;;;;;25344178;23;20049;-50
2023/08/15 03:00:13;;;;;;;21.80;17.15;;;14.70;99.90;;;;;;25341776;23;20006;-50
2023/08/15 03:10:15;;;;;;;18.17;15.75;;;14.60;99.90;;;;;;25343431;23;20013;-49
2023/08/15 03:20:17;;;;;;;19.77;15.98;;;14.80;99.90;;;;;;25317437;23;20014;-48
2023/08/15 03:30:19;;;;;;;18.70;15.90;;;14.80;99.90;;;;;;25343450;23;20013;-49
2023/08/15 03:40:22;;;;;;;23.92;17.52;;;15.00;99.90;;;;;;25340085;23;20065;-48
2023/08/15 03:50:24;;;;;;;23.83;20.63;;;15.10;99.90;;;;;;25341953;23;20010;-49
2023/08/15 04:00:25;;;;;;;31.25;24.98;;;14.90;99.90;;;;;;25342512;23;20041;-47
2023/08/15 04:10:28;;;;;;;29.48;23.20;;;14.80;99.90;;;;;;25314949;23;20303;-51
2023/08/15 04:20:30;;;;;;;32.05;24.85;;;14.80;99.90;;;;;;25314871;23;20017;-49
2023/08/15 04:30:32;;;;;;;28.30;24.92;;;15.00;99.90;;;;;;25341551;23;20437;-49
2023/08/15 04:40:43;;;;;;;29.02;24.08;;;14.90;99.90;;;;;;25339760;23;20006;-52
2023/08/15 04:50:46;;;;;;;30.80;25.23;;;15.10;99.90;;;;;;25380218;23;20014;-48
2023/08/15 05:00:49;;;;;;;33.63;27.85;;;15.30;99.90;;;;;;25313317;23;20028;-47
2023/08/15 05:10:52;;;;;;;38.20;30.73;;;15.40;99.90;;;;;;25312846;23;20433;-48
2023/08/15 05:20:54;;;;;;;36.00;30.55;;;15.70;99.90;;;;;;25341398;23;20500;-50
2023/08/15 05:30:56;;;;;;;34.22;29.90;;;16.20;99.90;;;;;;25345068;23;20009;-48
2023/08/15 05:40:58;;;;;;;31.25;27.73;;;16.70;99.90;;;;;;25346240;23;20006;-50
2023/08/15 05:51:00;;;;;;;32.03;28.52;;;17.00;99.90;;;;;;25346465;23;20002;-50
2023/08/15 06:01:02;;;;;;;27.58;24.67;;;17.10;99.90;;;;;;25345393;23;20334;-49
2023/08/15 06:11:04;;;;;;;23.85;21.33;;;17.40;99.90;;;;;;25345120;23;20492;-51
2023/08/15 06:21:06;;;;;;;21.23;17.83;;;18.00;99.90;;;;;;25345012;23;20533;-48
2023/08/15 06:31:08;;;;;;;19.05;14.40;;;19.20;99.90;;;;;;25343744;23;20480;-54
2023/08/15 06:41:11;;;;;;;13.30;12.02;;;20.50;99.90;;;;;;25343291;23;20014;-53
2023/08/15 06:51:12;;;;;;;10.93;8.52;;;21.90;99.90;;;;;;25343843;23;20065;-51
2023/08/15 07:01:14;;;;;;;10.55;9.43;;;24.10;99.90;;;;;;25343525;23;20504;-49
2023/08/15 07:11:16;;;;;;;9.55;8.57;;;24.90;99.90;;;;;;25342835;23;20084;-56
2023/08/15 07:21:18;;;;;;;10.02;9.10;;;24.20;99.90;;;;;;25343767;23;20002;-50
2023/08/15 07:31:20;;;;;;;8.65;7.85;;;24.00;99.90;;;;;;25341298;23;20006;-55
2023/08/15 07:41:23;;;;;;;8.50;7.70;;;23.10;99.90;;;;;;25341176;23;20014;-54
2023/08/15 07:51:25;;;;;;;9.50;8.25;;;22.50;99.90;;;;;;25340645;23;20450;-54
2023/08/15 08:01:28;;;;;;;9.32;8.32;;;22.60;99.90;;;;;;25340196;23;20017;-55
2023/08/15 08:11:30;;;;;;;9.25;8.18;;;23.40;99.90;;;;;;25340630;23;20009;-53
2023/08/15 08:21:33;;;;;;;6.55;5.95;;;25.90;99.90;;;;;;25340269;23;20006;-58
2023/08/15 08:31:37;;;;;;;8.73;7.57;;;25.80;99.90;;;;;;25339539;23;20005;-56
2023/08/15 08:41:40;;;;;;;7.80;6.97;;;25.20;99.90;;;;;;25337532;23;20013;-61
2023/08/15 08:51:42;;;;;;;9.07;8.05;;;25.20;99.90;;;;;;25338054;23;20017;-57
2023/08/15 09:01:45;;;;;;;8.65;7.75;;;25.30;99.90;;;;;;25337967;23;20006;-60
2023/08/15 09:11:47;;;;;;;9.00;8.10;;;25.30;99.90;;;;;;25338358;23;20010;-60
2023/08/15 09:21:49;;;;;;;8.65;7.60;;;25.40;99.90;;;;;;25337557;23;20002;-59
2023/08/15 09:31:51;;;;;;;8.82;7.88;;;25.80;99.90;;;;;;25311288;23;20059;-60
2023/08/15 09:41:53;;;;;;;9.88;7.43;;;26.00;99.90;;;;;;25336566;23;20014;-63
2023/08/15 09:51:59;;;;;;;11.02;7.53;;;26.20;99.90;;;;;;25335945;23;20078;-59
2023/08/15 10:02:02;;;;;;;8.10;7.30;;;26.40;99.90;;;;;;25376334;23;20017;-59
2023/08/15 10:12:07;;;;;;;8.73;7.82;;;25.90;99.90;;;;;;25344359;23;20010;-59
2023/08/15 10:22:09;;;;;;;9.48;7.82;;;26.40;99.90;;;;;;25345063;23;20065;-65
2023/08/15 10:32:25;;;;;;;8.75;7.43;;;27.70;99.90;;;;;;25344715;23;20065;-59
2023/08/15 10:42:28;;;;;;;8.70;6.63;;;28.00;99.90;;;;;;25353464;23;20010;-66
2023/08/15 10:52:31;;;;;;;8.50;7.25;;;28.90;99.90;;;;;;25343865;23;20021;-67
2023/08/15 11:02:33;;;;;;;8.27;7.55;;;29.50;99.90;;;;;;25342647;23;20010;-60
2023/08/15 11:12:36;;;;;;;8.45;7.70;;;28.90;99.90;;;;;;25316444;23;20334;-66
2023/08/15 11:22:37;;;;;;;7.53;6.82;;;27.20;99.90;;;;;;25344796;23;20010;-67
2023/08/15 11:32:39;;;;;;;8.25;7.45;;;26.70;99.90;;;;;;25344911;23;20321;-67
2023/08/15 11:42:42;;;;;;;11.10;8.60;;;26.90;99.90;;;;;;25343147;23;20045;-67
2023/08/15 11:52:46;;;;;;;6.95;6.25;;;27.30;99.90;;;;;;25067865;23;20126;-60
2023/08/15 12:02:49;;;;;;;6.53;5.80;;;27.40;99.90;;;;;;25092482;23;20010;-60
2023/08/15 12:12:52;;;;;;;7.00;6.40;;;27.90;99.90;;;;;;25090293;23;20435;-66
2023/08/15 12:22:54;;;;;;;6.10;5.60;;;27.20;99.90;;;;;;25287397;23;20017;-71
2023/08/15 12:32:57;;;;;;;6.47;5.88;;;28.40;99.90;;;;;;25338984;23;20341;-67
2023/08/15 12:43:02;;;;;;;8.40;5.80;;;28.80;99.90;;;;;;25320888;23;20014;-65
2023/08/15 12:53:05;;;;;;;6.05;5.55;;;29.30;99.90;;;;;;25319476;23;20354;-62
2023/08/15 13:03:09;;;;;;;9.10;6.65;;;29.50;98.80;;;;;;25321543;23;20002;-63
2023/08/15 13:13:11;;;;;;;7.95;7.15;;;30.50;98.70;;;;;;25321419;23;20009;-63
2023/08/15 13:23:13;;;;;;;7.72;7.03;;;30.70;98.80;;;;;;25321219;23;20072;-63
2023/08/15 13:33:15;;;;;;;7.50;6.88;;;30.20;97.90;;;;;;25319230;23;20061;-60
2023/08/15 13:43:19;;;;;;;8.57;7.28;;;28.80;99.60;;;;;;25326951;23;20013;-56
2023/08/15 13:53:21;;;;;;;6.60;5.80;;;28.90;98.30;;;;;;25276866;23;20010;-51
2023/08/15 14:03:29;;;;;;;8.18;6.63;;;29.70;98.30;;;;;;25329300;23;20005;-50
2023/08/15 14:13:32;;;;;;;7.40;6.80;;;29.30;98.10;;;;;;25368416;23;20009;-48
2023/08/15 14:23:35;;;;;;;10.75;6.90;;;29.10;99.20;;;;;;25301100;23;20069;-53
2023/08/15 14:33:37;;;;;;;8.05;7.25;;;29.80;98.80;;;;;;25323671;23;20049;-52
2023/08/15 14:43:39;;;;;;;7.80;7.20;;;30.10;97.10;;;;;;25326762;23;20429;-54
2023/08/15 14:53:44;;;;;;;7.90;7.22;;;29.80;97.20;;;;;;25327080;23;20006;-55
2023/08/15 15:03:46;;;;;;;7.97;7.20;;;28.30;99.90;;;;;;25329084;23;20730;-58
2023/08/15 15:13:48;;;;;;;7.63;6.88;;;27.30;99.20;;;;;;25366209;23;20037;-59
2023/08/15 15:23:50;;;;;;;9.65;8.75;;;26.90;99.90;;;;;;25325149;23;20006;-60
2023/08/15 15:33:54;;;;;;;9.13;8.18;;;26.30;99.90;;;;;;25325473;23;20056;-60
2023/08/15 15:43:57;;;;;;;8.77;7.60;;;25.70;99.90;;;;;;25324421;23;20496;-60
2023/08/15 15:53:59;;;;;;;8.70;7.90;;;25.30;99.90;;;;;;25325262;23;20492;-50
2023/08/15 16:04:01;;;;;;;8.85;7.78;;;25.00;99.90;;;;;;25323832;23;20002;-64
2023/08/15 16:14:03;;;;;;;8.68;7.93;;;24.80;99.90;;;;;;25324365;23;20013;-65
2023/08/15 16:24:06;;;;;;;9.50;8.57;;;24.40;99.90;;;;;;25324772;23;20481;-66
2023/08/15 16:34:08;;;;;;;10.38;9.48;;;23.40;99.90;;;;;;25323633;23;20492;-66
2023/08/15 16:44:10;;;;;;;11.70;10.52;;;22.50;99.90;;;;;;25323774;23;20326;-49
2023/08/15 16:54:12;;;;;;;12.93;11.15;;;21.90;99.90;;;;;;25324248;23;20006;-67
2023/08/15 17:04:14;;;;;;;15.80;14.00;;;21.30;99.90;;;;;;25324084;23;20003;-67
2023/08/15 17:14:16;;;;;;;13.60;12.40;;;20.70;99.90;;;;;;25300759;23;20010;-66
2023/08/15 17:24:18;;;;;;;20.10;17.98;;;20.20;99.90;;;;;;25336891;23;20008;-66
2023/08/15 17:34:20;;;;;;;19.23;17.33;;;20.00;99.90;;;;;;25337030;23;20317;-50
2023/08/15 17:44:22;;;;;;;19.48;17.58;;;19.60;99.90;;;;;;25338245;23;20006;-66
2023/08/15 17:54:24;;;;;;;20.63;18.45;;;19.20;99.90;;;;;;25336868;23;20421;-66
2023/08/15 18:04:25;;;;;;;21.42;19.33;;;19.00;99.90;;;;;;25336224;23;20013;-66
2023/08/15 18:14:31;;;;;;;74.35;54.05;;;18.70;99.90;;;;;;25336412;23;20006;-66
2023/08/15 18:24:33;;;;;;;23.67;21.27;;;18.50;99.90;;;;;;25334960;23;20026;-65
2023/08/15 18:34:35;;;;;;;26.90;23.52;;;18.10;99.90;;;;;;25329265;23;20002;-66
2023/08/15 18:44:36;;;;;;;27.42;24.52;;;17.90;99.90;;;;;;25328908;23;20041;-65
2023/08/15 18:54:38;;;;;;;29.08;26.23;;;17.70;99.90;;;;;;25328517;23;20005;-48
2023/08/15 19:04:40;;;;;;;24.92;22.42;;;17.70;99.90;;;;;;25330026;23;19998;-65
2023/08/15 19:14:42;;;;;;;26.40;23.67;;;17.60;99.90;;;;;;25327846;23;20339;-66
2023/08/15 19:24:45;;;;;;;39.90;35.58;;;17.80;99.90;;;;;;25327212;23;20006;-65
2023/08/15 19:34:48;;;;;;;24.40;21.90;;;18.00;99.90;;;;;;25327268;23;20006;-65
2023/08/15 19:44:50;;;;;;;22.55;20.38;;;18.10;99.90;;;;;;25326069;23;20010;-66
2023/08/15 19:54:52;;;;;;;64.63;52.60;;;18.10;99.90;;;;;;25300099;23;20010;-65
2023/08/15 20:04:54;;;;;;;25.02;22.33;;;18.00;99.90;;;;;;25325895;23;20025;-65
2023/08/15 20:14:57;;;;;;;24.17;21.67;;;17.80;99.90;;;;;;25325738;23;20472;-65
2023/08/15 20:24:59;;;;;;;25.42;22.92;;;17.60;99.90;;;;;;25325335;23;20005;-65
2023/08/15 20:35:01;;;;;;;24.35;21.95;;;17.60;99.90;;;;;;25324247;23;20002;-61
2023/08/15 20:45:04;;;;;;;18.52;16.73;;;17.50;99.90;;;;;;25324398;23;20006;-65
2023/08/15 20:55:11;;;;;;;21.83;18.98;;;17.50;99.90;;;;;;25323905;23;20056;-65
2023/08/15 21:05:14;;;;;;;19.33;17.52;;;17.50;99.90;;;;;;25364090;23;20002;-64
2023/08/15 21:15:17;;;;;;;19.20;16.77;;;17.40;99.90;;;;;;25323586;23;20062;-65
2023/08/15 21:25:20;;;;;;;17.73;15.93;;;17.40;99.90;;;;;;25323481;23;20009;-65
2023/08/15 21:35:23;;;;;;;16.73;15.13;;;17.80;99.90;;;;;;25297046;23;20088;-65
2023/08/15 21:45:25;;;;;;;18.00;16.20;;;18.20;99.90;;;;;;25337535;23;20029;-47
2023/08/15 21:55:27;;;;;;;10.85;9.85;;;18.40;99.90;;;;;;25323041;23;20019;-65
2023/08/15 22:05:30;;;;;;;10.38;9.38;;;18.60;99.90;;;;;;25328319;23;20418;-63
2023/08/15 22:15:32;;;;;;;11.75;8.07;;;18.40;99.90;;;;;;25330037;23;20002;-64
2023/08/15 22:25:34;;;;;;;8.35;6.10;;;17.60;99.90;;;;;;25329351;23;20430;-64
2023/08/15 22:35:41;;;;;;;3.03;2.70;;;16.90;99.90;;;;;;25329422;23;20013;-64
2023/08/15 22:45:45;;;;;;;3.50;2.08;;;16.90;99.90;;;;;;25327749;23;20017;-64
2023/08/15 22:55:47;;;;;;;4.90;2.78;;;17.10;99.90;;;;;;25328461;23;20441;-49
2023/08/15 23:05:49;;;;;;;3.72;2.50;;;17.00;99.90;;;;;;25330106;23;20061;-65
2023/08/15 23:15:52;;;;;;;3.45;2.70;;;16.70;99.90;;;;;;25328581;23;20059;-64
2023/08/15 23:25:54;;;;;;;1.65;1.50;;;16.60;99.90;;;;;;25326995;23;20322;-65
2023/08/15 23:35:56;;;;;;;2.03;1.80;;;16.60;99.90;;;;;;25327094;23;20010;-64
2023/08/15 23:45:57;;;;;;;2.63;1.73;;;16.80;99.90;;;;;;25326464;23;20326;-65
2023/08/15 23:55:59;;;;;;;1.80;1.70;;;16.90;99.90;;;;;;25326260;23;20007;-64
